createdAt,value
2023-04-30T00:00:14.223Z,1.50
2023-04-30T00:05:17.186Z,1.63
2023-04-30T00:10:20.208Z,1.75
2023-04-30T00:15:24.448Z,1.90
2023-04-30T00:20:27.335Z,1.40
2023-04-30T00:25:30.200Z,1.80
2023-04-30T00:30:34.460Z,1.55
2023-04-30T00:35:37.334Z,2.00
2023-04-30T00:40:42.047Z,1.70
2023-04-30T00:45:46.314Z,1.65
2023-04-30T00:50:49.227Z,1.45
2023-04-30T00:55:52.712Z,1.67
2023-04-30T01:00:57.147Z,1.80
2023-04-30T01:06:00.109Z,1.80
2023-04-30T01:11:14.341Z,1.55
2023-04-30T01:16:23.928Z,1.60
2023-04-30T01:21:30.763Z,1.45
2023-04-30T01:26:49.744Z,1.65
2023-04-30T01:31:53.980Z,1.50
2023-04-30T01:37:07.139Z,1.50
2023-04-30T01:42:14.962Z,1.85
2023-04-30T01:47:31.398Z,1.65
2023-04-30T01:52:42.936Z,1.60
2023-04-30T01:57:54.665Z,1.70
2023-04-30T02:02:59.094Z,1.35
2023-04-30T02:08:01.986Z,1.40
2023-04-30T02:13:04.990Z,1.60
2023-04-30T02:18:09.271Z,1.60
2023-04-30T02:23:12.241Z,1.40
2023-04-30T02:28:15.114Z,1.58
2023-04-30T02:33:19.364Z,1.52
2023-04-30T02:38:22.580Z,1.77
2023-04-30T02:43:25.459Z,1.67
2023-04-30T02:48:29.714Z,1.50
2023-04-30T02:53:32.630Z,1.55
2023-04-30T02:58:35.864Z,1.30
2023-04-30T03:03:40.121Z,1.45
2023-04-30T03:08:43.042Z,1.50
2023-04-30T03:13:46.341Z,1.60
2023-04-30T03:18:51.162Z,1.77
2023-04-30T03:23:54.107Z,1.38
2023-04-30T03:28:57.005Z,1.25
2023-04-30T03:34:01.266Z,1.30
2023-04-30T03:39:04.522Z,1.50
2023-04-30T03:44:08.756Z,1.50
2023-04-30T03:49:13.051Z,1.58
2023-04-30T03:54:16.064Z,1.50
2023-04-30T03:59:19.321Z,1.52
2023-04-30T04:04:23.699Z,1.33
2023-04-30T04:09:27.276Z,1.60
2023-04-30T04:14:30.245Z,1.33
2023-04-30T04:19:34.491Z,1.70
2023-04-30T04:24:38.345Z,1.40
2023-04-30T04:29:41.192Z,1.40
2023-04-30T04:34:45.866Z,1.67
2023-04-30T04:39:48.731Z,1.35
2023-04-30T04:44:51.947Z,1.55
2023-04-30T04:49:56.470Z,1.45
2023-04-30T04:54:59.653Z,1.60
2023-04-30T05:00:02.642Z,1.85
2023-04-30T05:05:07.889Z,1.60
2023-04-30T05:10:11.208Z,1.45
2023-04-30T05:15:14.090Z,1.52
2023-04-30T05:20:18.518Z,1.63
2023-04-30T05:25:21.481Z,1.23
2023-04-30T05:30:24.420Z,1.73
2023-04-30T05:35:28.856Z,1.52
2023-04-30T05:40:31.787Z,1.48
2023-04-30T05:45:34.794Z,1.35
2023-04-30T05:50:39.042Z,1.30
2023-04-30T05:55:42.308Z,1.42
2023-04-30T06:00:45.193Z,1.35
2023-04-30T06:05:49.631Z,1.60
2023-04-30T06:10:52.708Z,1.75
2023-04-30T06:15:55.661Z,1.55
2023-04-30T06:20:59.900Z,1.48
2023-04-30T06:26:02.809Z,1.30
2023-04-30T06:31:06.022Z,3.20
2023-04-30T06:36:10.449Z,2.80
2023-04-30T06:41:13.477Z,4.63
2023-04-30T06:46:16.553Z,9.68
2023-04-30T06:51:20.982Z,12.70
2023-04-30T06:56:25.029Z,19.40
2023-04-30T07:01:27.995Z,16.48
2023-04-30T07:06:32.279Z,13.77
2023-04-30T07:11:35.194Z,11.82
2023-04-30T07:16:38.085Z,9.88
2023-04-30T07:21:42.298Z,10.48
2023-04-30T07:26:45.189Z,8.57
2023-04-30T07:31:48.166Z,7.05
2023-04-30T07:36:52.482Z,6.30
2023-04-30T07:41:55.342Z,6.18
2023-04-30T07:46:58.351Z,7.43
2023-04-30T07:52:02.646Z,7.13
2023-04-30T07:57:05.657Z,6.35
2023-04-30T08:02:10.383Z,5.88
2023-04-30T08:07:15.607Z,4.82
2023-04-30T08:12:19.014Z,5.00
2023-04-30T08:17:21.912Z,4.70
2023-04-30T08:22:26.367Z,4.25
2023-04-30T08:27:29.254Z,3.97
2023-04-30T08:32:32.176Z,3.80
2023-04-30T08:37:36.538Z,3.20
2023-04-30T08:42:43.261Z,3.72
2023-04-30T08:47:46.911Z,3.10
2023-04-30T08:52:51.207Z,3.03
2023-04-30T08:57:54.114Z,3.28
2023-04-30T09:02:57.230Z,2.60
2023-04-30T09:08:04.166Z,2.90
2023-04-30T09:13:09.490Z,5.68
2023-04-30T09:18:15.545Z,11.50
2023-04-30T09:23:19.892Z,8.68
2023-04-30T09:28:25.479Z,10.93
2023-04-30T09:33:30.171Z,7.72
2023-04-30T09:38:34.509Z,5.40
2023-04-30T09:43:46.589Z,5.68
2023-04-30T09:48:58.224Z,8.50
2023-04-30T09:54:04.738Z,7.95
2023-04-30T09:59:09.797Z,6.38
2023-04-30T10:04:12.960Z,6.28
2023-04-30T10:09:17.872Z,6.28
2023-04-30T10:14:21.684Z,5.75
2023-04-30T10:19:26.895Z,5.07
2023-04-30T10:24:32.312Z,5.30
2023-04-30T10:29:35.182Z,4.60
2023-04-30T10:34:49.396Z,4.65
2023-04-30T10:39:54.197Z,4.13
2023-04-30T10:44:58.060Z,3.65
2023-04-30T10:50:04.901Z,3.80
2023-04-30T10:55:10.421Z,3.70
2023-04-30T11:00:27.210Z,3.03
2023-04-30T11:05:37.708Z,3.15
2023-04-30T11:10:58.716Z,2.70
2023-04-30T11:16:04.397Z,3.33
2023-04-30T11:21:10.310Z,2.90
2023-04-30T11:26:14.564Z,2.58
2023-04-30T11:31:17.994Z,2.58
2023-04-30T11:36:21.639Z,2.65
2023-04-30T11:41:27.367Z,2.15
2023-04-30T11:46:31.216Z,2.20
2023-04-30T11:51:38.456Z,2.00
2023-04-30T11:56:48.397Z,2.10
2023-04-30T12:01:51.353Z,2.67
2023-04-30T12:06:54.313Z,1.98
2023-04-30T12:11:59.106Z,2.20
2023-04-30T12:17:02.156Z,1.92
2023-04-30T12:22:05.267Z,1.65
2023-04-30T12:27:09.542Z,1.90
2023-04-30T12:32:16.252Z,2.03
2023-04-30T12:37:19.245Z,1.80
2023-04-30T12:42:23.523Z,1.58
2023-04-30T12:47:26.551Z,1.65
2023-04-30T12:52:29.475Z,1.58
2023-04-30T12:57:34.340Z,1.60
2023-04-30T13:02:37.557Z,1.90
2023-04-30T13:07:40.709Z,1.92
2023-04-30T13:12:44.976Z,1.70
2023-04-30T13:17:47.888Z,2.17
2023-04-30T13:22:50.858Z,2.40
2023-04-30T13:27:55.250Z,2.35
2023-04-30T13:32:59.304Z,2.40
2023-04-30T13:38:02.463Z,2.58
2023-04-30T13:43:07.856Z,2.00
2023-04-30T13:48:10.948Z,2.80
2023-04-30T13:53:14.251Z,2.63
2023-04-30T13:58:18.563Z,2.42
2023-04-30T14:03:21.504Z,2.53
2023-04-30T14:08:24.603Z,3.30
2023-04-30T14:13:29.563Z,3.03
2023-04-30T14:18:32.553Z,2.83
2023-04-30T14:23:35.455Z,3.20
2023-04-30T14:28:39.760Z,3.28
2023-04-30T14:33:42.694Z,2.50
2023-04-30T14:38:45.655Z,3.53
2023-04-30T14:43:49.890Z,2.97
2023-04-30T14:48:52.799Z,3.15
2023-04-30T14:53:55.739Z,2.67
2023-04-30T14:58:59.959Z,3.50
2023-04-30T15:04:03.438Z,3.75
2023-04-30T15:09:06.480Z,3.45
2023-04-30T15:14:10.801Z,3.92
2023-04-30T15:19:13.781Z,3.30
2023-04-30T15:24:17.990Z,3.70
2023-04-30T15:29:22.213Z,3.63
2023-04-30T15:34:25.089Z,3.40
2023-04-30T15:39:27.978Z,3.67
2023-04-30T15:44:32.342Z,1.75
2023-04-30T15:49:35.361Z,2.50
2023-04-30T15:54:38.280Z,4.03
2023-04-30T15:59:42.512Z,4.10
2023-04-30T16:04:45.402Z,4.32
2023-04-30T16:09:49.346Z,4.47
2023-04-30T16:14:53.675Z,3.78
2023-04-30T16:19:57.120Z,3.78
2023-04-30T16:25:00.368Z,3.63
2023-04-30T16:30:05.756Z,2.40
2023-04-30T16:35:09.502Z,2.13
2023-04-30T16:40:13.029Z,1.85
2023-04-30T16:45:17.882Z,2.53
2023-04-30T16:50:20.850Z,3.08
2023-04-30T16:55:23.906Z,4.07
2023-04-30T17:00:28.265Z,4.97
2023-04-30T17:05:31.171Z,4.35
2023-04-30T17:10:34.120Z,4.53
2023-04-30T17:15:38.630Z,4.78
2023-04-30T17:20:41.592Z,4.10
2023-04-30T17:25:44.493Z,4.95
2023-04-30T17:30:49.933Z,5.40
2023-04-30T17:35:53.117Z,4.82
2023-04-30T17:40:56.749Z,5.22
2023-04-30T17:46:01.044Z,4.65
2023-04-30T17:51:04.447Z,4.43
2023-04-30T17:56:08.785Z,4.15
2023-04-30T18:01:13.290Z,4.07
2023-04-30T18:06:16.320Z,5.88
2023-04-30T18:11:19.228Z,3.53
2023-04-30T18:16:23.754Z,3.17
2023-04-30T18:21:27.066Z,2.47
2023-04-30T18:26:30.052Z,2.20
2023-04-30T18:31:36.761Z,3.20
2023-04-30T18:36:42.896Z,2.58
2023-04-30T18:41:46.184Z,2.50
2023-04-30T18:46:50.819Z,2.60
2023-04-30T18:51:55.267Z,3.08
2023-04-30T18:56:58.411Z,4.93
2023-04-30T19:02:02.749Z,1.92
2023-04-30T19:07:05.839Z,2.60
2023-04-30T19:12:10.233Z,2.72
2023-04-30T19:17:14.829Z,2.88
2023-04-30T19:22:17.956Z,2.95
2023-04-30T19:27:20.871Z,2.95
2023-04-30T19:32:25.204Z,2.72
2023-04-30T19:37:28.148Z,2.60
2023-04-30T19:42:32.359Z,4.07
2023-04-30T19:47:38.503Z,2.88
2023-04-30T19:52:41.523Z,3.38
2023-04-30T19:57:44.630Z,3.30
2023-04-30T20:02:48.940Z,3.55
2023-04-30T20:07:52.371Z,3.35
2023-04-30T20:12:55.780Z,2.95
2023-04-30T20:18:01.069Z,3.22
2023-04-30T20:23:13.967Z,3.45
2023-04-30T20:28:18.329Z,2.75
2023-04-30T20:33:22.655Z,3.17
2023-04-30T20:38:25.930Z,3.00
2023-04-30T20:43:28.824Z,2.60
2023-04-30T20:48:33.067Z,2.60
2023-04-30T20:53:35.970Z,2.58
2023-04-30T20:58:38.854Z,2.67
2023-04-30T21:03:43.094Z,2.20
2023-04-30T21:08:46.017Z,2.10
2023-04-30T21:13:51.268Z,2.88
2023-04-30T21:18:55.774Z,2.63
2023-04-30T21:24:00.982Z,2.65
2023-04-30T21:29:03.949Z,3.20
2023-04-30T21:34:08.163Z,3.65
2023-04-30T21:39:11.145Z,2.97
2023-04-30T21:44:14.315Z,2.90
2023-04-30T21:49:18.559Z,3.78
2023-04-30T21:54:21.488Z,2.58
2023-04-30T21:59:24.855Z,2.85
2023-04-30T22:04:29.119Z,2.70
2023-04-30T22:09:32.017Z,3.00
2023-04-30T22:14:35.106Z,3.25
2023-04-30T22:19:39.372Z,3.15
2023-04-30T22:24:42.266Z,3.35
2023-04-30T22:29:46.325Z,3.20
2023-04-30T22:34:50.792Z,3.20
2023-04-30T22:39:53.726Z,2.78
2023-04-30T22:44:56.802Z,3.97
2023-04-30T22:50:01.073Z,2.33
2023-04-30T22:55:05.516Z,3.10
2023-04-30T23:00:09.742Z,3.25
2023-04-30T23:05:13.995Z,2.67
2023-04-30T23:10:17.224Z,3.03
2023-04-30T23:15:20.207Z,2.97
2023-04-30T23:20:24.486Z,2.78
2023-04-30T23:25:27.332Z,2.70
2023-04-30T23:30:30.212Z,3.58
2023-04-30T23:35:34.456Z,3.33
2023-04-30T23:40:38.258Z,2.92
2023-04-30T23:45:42.273Z,2.75
